createdAt,value
2019-03-20T00:03:44.238Z,96906.00
2019-03-20T00:09:13.702Z,96908.00
2019-03-20T00:14:43.131Z,96909.00
2019-03-20T00:20:14.230Z,96912.00
2019-03-20T00:25:43.789Z,96910.00
2019-03-20T00:31:13.168Z,96922.00
2019-03-20T00:36:42.549Z,96924.00
2019-03-20T00:42:11.994Z,96913.00
2019-03-20T00:47:41.323Z,96918.00
2019-03-20T00:53:10.707Z,96922.00
2019-03-20T00:58:40.112Z,96917.00
2019-03-20T01:04:09.498Z,96906.00
2019-03-20T01:09:38.894Z,96898.00
2019-03-20T01:15:10.149Z,96904.00
2019-03-20T01:20:39.455Z,96909.00
2019-03-20T01:26:08.879Z,96908.00
2019-03-20T01:31:38.298Z,96899.00
2019-03-20T01:37:07.826Z,96909.00
2019-03-20T01:42:37.231Z,96903.00
2019-03-20T01:48:07.013Z,96902.00
2019-03-20T01:53:36.382Z,96894.00
2019-03-20T01:59:05.931Z,96892.00
2019-03-20T02:04:35.409Z,96905.00
2019-03-20T02:10:08.387Z,96895.00
2019-03-20T02:15:39.686Z,96893.00
2019-03-20T02:21:09.293Z,96893.00
2019-03-20T02:26:38.751Z,96896.00
2019-03-20T02:32:08.316Z,96897.00
2019-03-20T02:37:37.697Z,96895.00
2019-03-20T02:43:07.063Z,96881.00
2019-03-20T02:48:36.507Z,96883.00
2019-03-20T02:54:06.037Z,96879.00
2019-03-20T02:59:35.551Z,96876.00
2019-03-20T03:05:06.416Z,96876.00
2019-03-20T03:10:35.752Z,96871.00
2019-03-20T03:16:05.250Z,96874.00
2019-03-20T03:21:35.645Z,96881.00
2019-03-20T03:27:05.144Z,96889.00
2019-03-20T03:32:34.662Z,96894.00
2019-03-20T03:38:04.161Z,96899.00
2019-03-20T03:43:33.585Z,96902.00
2019-03-20T03:49:03.861Z,96899.00
2019-03-20T03:54:33.290Z,96902.00
2019-03-20T04:00:02.938Z,96895.00
2019-03-20T04:05:32.444Z,96911.00
2019-03-20T04:11:01.919Z,96927.00
2019-03-20T04:16:31.521Z,96920.00
2019-03-20T04:22:01.125Z,96937.00
2019-03-20T04:27:30.583Z,96925.00
2019-03-20T04:33:00.345Z,96929.00
2019-03-20T04:38:31.802Z,96938.00
2019-03-20T04:44:01.541Z,96938.00
2019-03-20T04:49:31.541Z,96945.00
2019-03-20T04:55:01.448Z,96940.00
2019-03-20T05:00:34.106Z,96953.00
2019-03-20T05:06:04.464Z,96957.00
2019-03-20T05:11:39.981Z,96956.00
2019-03-20T05:17:11.309Z,96966.00
2019-03-20T05:22:47.810Z,96973.00
2019-03-20T05:28:18.198Z,96985.00
2019-03-20T05:33:47.951Z,96990.00
2019-03-20T05:39:27.014Z,96999.00
2019-03-20T05:44:57.865Z,96998.00
2019-03-20T05:50:30.773Z,97008.00
2019-03-20T05:56:00.518Z,97008.00
2019-03-20T06:01:30.038Z,97013.00
2019-03-20T06:06:59.934Z,97011.00
2019-03-20T06:12:29.633Z,97031.00
2019-03-20T06:17:59.186Z,97034.00
2019-03-20T06:23:30.136Z,97037.00
2019-03-20T06:28:59.832Z,97052.00
2019-03-20T06:34:29.353Z,97047.00
2019-03-20T06:39:59.055Z,97052.00
2019-03-20T06:45:28.672Z,97055.00
2019-03-20T06:50:58.611Z,97059.00
2019-03-20T06:56:28.213Z,97071.00
2019-03-20T07:01:58.597Z,97072.00
2019-03-20T07:07:43.187Z,97078.00
2019-03-20T07:13:03.961Z,97084.00
2019-03-20T07:18:33.350Z,97081.00
2019-03-20T07:24:02.903Z,97092.00
2019-03-20T07:29:32.507Z,97092.00
2019-03-20T07:35:02.087Z,97105.00
2019-03-20T07:40:31.643Z,97104.00
2019-03-20T07:46:01.439Z,97103.00
2019-03-20T07:51:30.918Z,97106.00
2019-03-20T07:57:00.344Z,97100.00
2019-03-20T08:02:29.816Z,97100.00
2019-03-20T08:08:07.110Z,97108.00
2019-03-20T08:13:30.606Z,97122.00
2019-03-20T08:18:59.998Z,97124.00
2019-03-20T08:24:29.513Z,97128.00
2019-03-20T08:29:59.064Z,97127.00
2019-03-20T08:35:28.771Z,97128.00
2019-03-20T08:40:58.394Z,97127.00
2019-03-20T08:46:28.072Z,97142.00
2019-03-20T08:51:57.645Z,97135.00
2019-03-20T08:57:27.179Z,97128.00
2019-03-20T09:02:56.928Z,97141.00
2019-03-20T09:08:29.659Z,97151.00
2019-03-20T09:13:57.816Z,97150.00
2019-03-20T09:19:27.475Z,97156.00
2019-03-20T09:24:57.018Z,97153.00
2019-03-20T09:30:27.881Z,97148.00
2019-03-20T09:35:57.519Z,97161.00
2019-03-20T09:41:27.004Z,97152.00
2019-03-20T09:46:56.600Z,97164.00
2019-03-20T09:52:26.166Z,97159.00
2019-03-20T09:57:55.582Z,97149.00
2019-03-20T10:03:25.079Z,97157.00
2019-03-20T10:08:54.682Z,97153.00
2019-03-20T10:14:25.918Z,97148.00
2019-03-20T10:19:55.422Z,97151.00
2019-03-20T10:25:25.048Z,97154.00
2019-03-20T10:30:57.801Z,97163.00
2019-03-20T10:36:27.326Z,97161.00
2019-03-20T10:41:57.291Z,97165.00
2019-03-20T10:47:26.792Z,97160.00
2019-03-20T10:52:56.450Z,97161.00
2019-03-20T10:58:27.315Z,97168.00
2019-03-20T11:03:57.975Z,97164.00
2019-03-20T11:09:27.618Z,97178.00
2019-03-20T11:14:57.113Z,97175.00
2019-03-20T11:20:26.924Z,97172.00
2019-03-20T11:25:56.474Z,97183.00
2019-03-20T11:31:28.142Z,97178.00
2019-03-20T11:36:57.718Z,97175.00
2019-03-20T11:42:27.535Z,97161.00
2019-03-20T11:47:57.170Z,97170.00
2019-03-20T11:53:26.716Z,97173.00
2019-03-20T11:58:56.214Z,97168.00
2019-03-20T12:04:25.903Z,97161.00
2019-03-20T12:09:55.410Z,97171.00
2019-03-20T12:15:26.260Z,97168.00
2019-03-20T12:20:56.060Z,97167.00
2019-03-20T12:26:25.616Z,97179.00
2019-03-20T12:31:55.559Z,97170.00
2019-03-20T12:37:25.106Z,97157.00
2019-03-20T12:42:54.894Z,97153.00
2019-03-20T12:48:24.505Z,97148.00
2019-03-20T12:53:54.608Z,97151.00
2019-03-20T12:59:24.277Z,97159.00
2019-03-20T13:04:53.942Z,97149.00
2019-03-20T13:10:28.614Z,97140.00
2019-03-20T13:15:58.428Z,97140.00
2019-03-20T13:21:28.105Z,97128.00
2019-03-20T13:26:57.974Z,97129.00
2019-03-20T13:32:28.818Z,97135.00
2019-03-20T13:37:58.678Z,97122.00
2019-03-20T13:43:28.264Z,97120.00
2019-03-20T13:48:57.909Z,97120.00
2019-03-20T13:54:27.424Z,97126.00
2019-03-20T13:59:57.115Z,97130.00
2019-03-20T14:05:26.705Z,97111.00
2019-03-20T14:10:56.385Z,97093.00
2019-03-20T14:16:25.976Z,97097.00
2019-03-20T14:21:55.587Z,97078.00
2019-03-20T14:27:25.076Z,97084.00
2019-03-20T14:32:54.609Z,97072.00
2019-03-20T14:38:24.149Z,97041.00
2019-03-20T14:43:53.676Z,97043.00
2019-03-20T14:49:23.068Z,97045.00
2019-03-20T14:54:52.559Z,97057.00
2019-03-20T15:00:29.402Z,97051.00
2019-03-20T15:05:59.002Z,97049.00
2019-03-20T15:11:28.631Z,97054.00
2019-03-20T15:16:58.388Z,97065.00
2019-03-20T15:22:28.129Z,97078.00
2019-03-20T15:27:59.039Z,97093.00
2019-03-20T15:33:28.810Z,97099.00
2019-03-20T15:38:58.669Z,97085.00
2019-03-20T15:44:28.288Z,97082.00
2019-03-20T15:49:58.086Z,97070.00
2019-03-20T15:55:41.803Z,97072.00
2019-03-20T16:01:11.272Z,97064.00
2019-03-20T16:06:40.811Z,97070.00
2019-03-20T16:12:10.406Z,97090.00
2019-03-20T16:17:39.824Z,97070.00
2019-03-20T16:23:09.589Z,97105.00
2019-03-20T16:28:39.046Z,97117.00
2019-03-20T16:34:08.677Z,97118.00
2019-03-20T16:39:40.394Z,97121.00
2019-03-20T16:45:18.947Z,97120.00
2019-03-20T16:50:48.455Z,97133.00
2019-03-20T16:56:18.112Z,97131.00
2019-03-20T17:01:47.715Z,97138.00
2019-03-20T17:07:17.258Z,97140.00
2019-03-20T17:12:46.832Z,97138.00
2019-03-20T17:18:16.595Z,97156.00
2019-03-20T17:23:49.730Z,97153.00
2019-03-20T17:29:20.267Z,97165.00
2019-03-20T17:34:49.865Z,97166.00
2019-03-20T17:40:26.533Z,97164.00
2019-03-20T17:45:56.217Z,97171.00
2019-03-20T17:51:26.101Z,97160.00
2019-03-20T17:56:55.683Z,97164.00
2019-03-20T18:02:26.715Z,97172.00
2019-03-20T18:07:56.547Z,97162.00
2019-03-20T18:13:26.302Z,97176.00
2019-03-20T18:18:56.040Z,97174.00
2019-03-20T18:24:25.629Z,97174.00
2019-03-20T18:29:55.165Z,97178.00
2019-03-20T18:35:26.973Z,97180.00
2019-03-20T18:40:59.315Z,97181.00
2019-03-20T18:46:30.786Z,97195.00
2019-03-20T18:52:07.108Z,97214.00
2019-03-20T18:57:36.275Z,97203.00
2019-03-20T19:03:19.243Z,97201.00
2019-03-20T19:08:50.350Z,97194.00
2019-03-20T19:14:19.877Z,97195.00
2019-03-20T19:19:49.524Z,97205.00
2019-03-20T19:25:19.304Z,97202.00
2019-03-20T19:30:49.280Z,97194.00
2019-03-20T19:36:18.642Z,97205.00
2019-03-20T19:41:49.117Z,97207.00
2019-03-20T19:47:19.563Z,97196.00
2019-03-20T19:52:52.324Z,97201.00
2019-03-20T19:58:21.759Z,97211.00
2019-03-20T20:03:51.421Z,97219.00
2019-03-20T20:09:21.047Z,97209.00
2019-03-20T20:14:50.626Z,97222.00
2019-03-20T20:20:26.061Z,97208.00
2019-03-20T20:25:55.950Z,97219.00
2019-03-20T20:31:25.736Z,97220.00
2019-03-20T20:36:55.479Z,97223.00
2019-03-20T20:42:27.067Z,97224.00
2019-03-20T20:47:57.613Z,97240.00
2019-03-20T20:53:27.497Z,97226.00
2019-03-20T20:58:57.361Z,97234.00
2019-03-20T21:04:27.203Z,97243.00
2019-03-20T21:09:57.029Z,97242.00
2019-03-20T21:15:36.404Z,97239.00
2019-03-20T21:21:05.866Z,97242.00
2019-03-20T21:26:56.687Z,97252.00
2019-03-20T21:32:48.727Z,97240.00
2019-03-20T21:38:16.534Z,97239.00
2019-03-20T21:44:28.600Z,97238.00
2019-03-20T21:49:58.489Z,97234.00
2019-03-20T21:56:08.332Z,97230.00
2019-03-20T22:02:23.524Z,97228.00
2019-03-20T22:07:52.958Z,97226.00
2019-03-20T22:13:29.965Z,97231.00
2019-03-20T22:19:22.212Z,97231.00
2019-03-20T22:25:26.737Z,97215.00
2019-03-20T22:30:56.456Z,97205.00
2019-03-20T22:36:26.384Z,97205.00
2019-03-20T22:42:11.960Z,97204.00
2019-03-20T22:48:05.197Z,97197.00
2019-03-20T22:53:48.559Z,97205.00
2019-03-20T22:59:18.039Z,97189.00
2019-03-20T23:04:54.999Z,97208.00
2019-03-20T23:10:24.487Z,97203.00
2019-03-20T23:15:53.903Z,97191.00
2019-03-20T23:21:23.439Z,97191.00
2019-03-20T23:27:02.762Z,97192.00
2019-03-20T23:32:34.284Z,97193.00
2019-03-20T23:38:03.811Z,97193.00
2019-03-20T23:43:33.820Z,97188.00
2019-03-20T23:49:20.027Z,97180.00
2019-03-20T23:54:49.508Z,97190.00
